sensor_id;sensor_type;location;lat;lon;timestamp;temperature;humidity
73939;DHT22;62291;47.554;8.504;2022-12-16T00:01:53;1.60;99.90
73939;DHT22;62291;47.554;8.504;2022-12-16T00:04:19;1.60;99.90
73939;DHT22;62291;47.554;8.504;2022-12-16T00:06:44;1.50;99.90
73939;DHT22;62291;47.554;8.504;2022-12-16T00:09:10;1.50;99.90
73939;DHT22;62291;47.554;8.504;2022-12-16T00:11:36;1.40;99.90
73939;DHT22;62291;47.554;8.504;2022-12-16T00:14:02;1.40;99.90
73939;DHT22;62291;47.554;8.504;2022-12-16T00:16:27;1.40;99.90
73939;DHT22;62291;47.554;8.504;2022-12-16T00:18:53;1.50;99.90
73939;DHT22;62291;47.554;8.504;2022-12-16T00:21:19;1.40;99.90
73939;DHT22;62291;47.554;8.504;2022-12-16T00:23:45;1.30;99.90
73939;DHT22;62291;47.554;8.504;2022-12-16T00:26:11;1.40;99.90
73939;DHT22;62291;47.554;8.504;2022-12-16T00:28:38;1.50;99.90
73939;DHT22;62291;47.554;8.504;2022-12-16T00:31:04;1.60;99.90
73939;DHT22;62291;47.554;8.504;2022-12-16T00:33:30;1.50;99.90
73939;DHT22;62291;47.554;8.504;2022-12-16T00:35:56;1.50;99.90
73939;DHT22;62291;47.554;8.504;2022-12-16T00:38:24;1.50;99.90
73939;DHT22;62291;47.554;8.504;2022-12-16T00:40:50;1.60;99.90
73939;DHT22;62291;47.554;8.504;2022-12-16T00:43:15;1.70;99.90
73939;DHT22;62291;47.554;8.504;2022-12-16T00:45:41;1.70;99.90
73939;DHT22;62291;47.554;8.504;2022-12-16T00:48:07;1.70;99.90
73939;DHT22;62291;47.554;8.504;2022-12-16T00:50:33;1.70;99.90
73939;DHT22;62291;47.554;8.504;2022-12-16T00:52:59;1.80;99.90
73939;DHT22;62291;47.554;8.504;2022-12-16T00:55:25;1.80;99.90
73939;DHT22;62291;47.554;8.504;2022-12-16T00:57:51;1.80;99.90
73939;DHT22;62291;47.554;8.504;2022-12-16T01:00:17;1.70;99.90
73939;DHT22;62291;47.554;8.504;2022-12-16T01:02:45;1.70;99.90
73939;DHT22;62291;47.554;8.504;2022-12-16T01:05:13;1.60;99.90
73939;DHT22;62291;47.554;8.504;2022-12-16T01:07:40;1.60;99.90
73939;DHT22;62291;47.554;8.504;2022-12-16T01:10:08;1.60;99.90
73939;DHT22;62291;47.554;8.504;2022-12-16T01:12:34;1.60;99.90
73939;DHT22;62291;47.554;8.504;2022-12-16T01:15:01;1.70;99.90
73939;DHT22;62291;47.554;8.504;2022-12-16T01:17:27;1.70;99.90
73939;DHT22;62291;47.554;8.504;2022-12-16T01:19:53;1.80;99.90
73939;DHT22;62291;47.554;8.504;2022-12-16T01:22:19;1.80;99.90
73939;DHT22;62291;47.554;8.504;2022-12-16T01:24:46;1.80;99.90
73939;DHT22;62291;47.554;8.504;2022-12-16T01:27:12;1.90;99.90
73939;DHT22;62291;47.554;8.504;2022-12-16T01:29:38;1.90;99.90
73939;DHT22;62291;47.554;8.504;2022-12-16T01:32:04;1.90;99.90
73939;DHT22;62291;47.554;8.504;2022-12-16T01:34:31;1.70;99.90
73939;DHT22;62291;47.554;8.504;2022-12-16T01:36:56;1.70;99.90
73939;DHT22;62291;47.554;8.504;2022-12-16T01:39:23;1.70;99.90
73939;DHT22;62291;47.554;8.504;2022-12-16T01:41:51;1.70;99.90
73939;DHT22;62291;47.554;8.504;2022-12-16T01:44:19;1.60;99.90
73939;DHT22;62291;47.554;8.504;2022-12-16T01:46:55;1.50;99.90
73939;DHT22;62291;47.554;8.504;2022-12-16T01:49:40;1.50;99.90
73939;DHT22;62291;47.554;8.504;2022-12-16T01:52:12;1.50;99.90
73939;DHT22;62291;47.554;8.504;2022-12-16T01:54:44;1.50;99.90
73939;DHT22;62291;47.554;8.504;2022-12-16T01:57:17;1.60;99.90
73939;DHT22;62291;47.554;8.504;2022-12-16T01:59:47;1.70;99.90
73939;DHT22;62291;47.554;8.504;2022-12-16T02:02:14;1.70;99.90
73939;DHT22;62291;47.554;8.504;2022-12-16T02:04:39;1.70;99.90
73939;DHT22;62291;47.554;8.504;2022-12-16T02:07:25;1.70;99.90
73939;DHT22;62291;47.554;8.504;2022-12-16T02:09:51;1.70;99.90
73939;DHT22;62291;47.554;8.504;2022-12-16T02:15:28;1.70;99.90
73939;DHT22;62291;47.554;8.504;2022-12-16T02:18:03;1.80;99.90
73939;DHT22;62291;47.554;8.504;2022-12-16T02:29:19;1.70;99.90
73939;DHT22;62291;47.554;8.504;2022-12-16T02:32:15;1.70;99.90
73939;DHT22;62291;47.554;8.504;2022-12-16T02:35:26;1.70;99.90
73939;DHT22;62291;47.554;8.504;2022-12-16T02:37:55;1.60;99.90
73939;DHT22;62291;47.554;8.504;2022-12-16T02:40:51;1.60;99.90
73939;DHT22;62291;47.554;8.504;2022-12-16T02:46:01;1.50;99.90
73939;DHT22;62291;47.554;8.504;2022-12-16T02:48:28;1.50;99.90
73939;DHT22;62291;47.554;8.504;2022-12-16T02:50:54;1.60;99.90
73939;DHT22;62291;47.554;8.504;2022-12-16T02:53:21;1.50;99.90
73939;DHT22;62291;47.554;8.504;2022-12-16T02:56:06;1.50;99.90
73939;DHT22;62291;47.554;8.504;2022-12-16T03:01:38;1.50;99.90
73939;DHT22;62291;47.554;8.504;2022-12-16T03:06:57;1.50;99.90
73939;DHT22;62291;47.554;8.504;2022-12-16T03:09:28;1.50;99.90
73939;DHT22;62291;47.554;8.504;2022-12-16T03:11:54;1.50;99.90
73939;DHT22;62291;47.554;8.504;2022-12-16T03:14:23;1.50;99.90
73939;DHT22;62291;47.554;8.504;2022-12-16T03:16:50;1.50;99.90
73939;DHT22;62291;47.554;8.504;2022-12-16T03:19:17;1.40;99.90
73939;DHT22;62291;47.554;8.504;2022-12-16T03:22:23;1.40;99.90
73939;DHT22;62291;47.554;8.504;2022-12-16T03:24:50;1.40;99.90
73939;DHT22;62291;47.554;8.504;2022-12-16T03:27:23;1.40;99.90
73939;DHT22;62291;47.554;8.504;2022-12-16T03:35:00;1.30;99.90
73939;DHT22;62291;47.554;8.504;2022-12-16T03:37:30;1.30;99.90
73939;DHT22;62291;47.554;8.504;2022-12-16T03:40:00;1.30;99.90
73939;DHT22;62291;47.554;8.504;2022-12-16T03:42:27;1.30;99.90
73939;DHT22;62291;47.554;8.504;2022-12-16T03:44:54;1.20;99.90
73939;DHT22;62291;47.554;8.504;2022-12-16T03:47:20;1.30;99.90
73939;DHT22;62291;47.554;8.504;2022-12-16T03:49:46;1.30;99.90
73939;DHT22;62291;47.554;8.504;2022-12-16T03:52:12;1.20;99.90
73939;DHT22;62291;47.554;8.504;2022-12-16T03:54:38;1.20;99.90
73939;DHT22;62291;47.554;8.504;2022-12-16T03:57:03;1.20;99.90
73939;DHT22;62291;47.554;8.504;2022-12-16T03:59:29;1.10;99.90
73939;DHT22;62291;47.554;8.504;2022-12-16T04:01:55;1.10;99.90
73939;DHT22;62291;47.554;8.504;2022-12-16T04:04:20;1.10;99.90
73939;DHT22;62291;47.554;8.504;2022-12-16T04:06:46;1.10;99.90
73939;DHT22;62291;47.554;8.504;2022-12-16T04:09:32;1.10;99.90
73939;DHT22;62291;47.554;8.504;2022-12-16T04:11:57;1.00;99.90
73939;DHT22;62291;47.554;8.504;2022-12-16T04:14:41;1.00;99.90
73939;DHT22;62291;47.554;8.504;2022-12-16T04:17:25;1.00;99.90
73939;DHT22;62291;47.554;8.504;2022-12-16T04:20:17;1.00;99.90
73939;DHT22;62291;47.554;8.504;2022-12-16T04:23:02;0.90;99.90
73939;DHT22;62291;47.554;8.504;2022-12-16T04:25:47;1.00;99.90
73939;DHT22;62291;47.554;8.504;2022-12-16T04:28:13;0.90;99.90
73939;DHT22;62291;47.554;8.504;2022-12-16T04:30:39;0.90;99.90
73939;DHT22;62291;47.554;8.504;2022-12-16T04:33:12;0.90;99.90
73939;DHT22;62291;47.554;8.504;2022-12-16T04:35:57;0.90;99.90
73939;DHT22;62291;47.554;8.504;2022-12-16T04:38:41;0.90;99.90
73939;DHT22;62291;47.554;8.504;2022-12-16T04:41:25;0.90;99.90
73939;DHT22;62291;47.554;8.504;2022-12-16T04:44:09;0.90;99.90
73939;DHT22;62291;47.554;8.504;2022-12-16T04:46:53;0.90;99.90
73939;DHT22;62291;47.554;8.504;2022-12-16T04:49:38;0.80;99.90
73939;DHT22;62291;47.554;8.504;2022-12-16T04:52:22;0.80;99.90
73939;DHT22;62291;47.554;8.504;2022-12-16T04:55:07;0.70;99.90
73939;DHT22;62291;47.554;8.504;2022-12-16T04:57:53;0.70;99.90
73939;DHT22;62291;47.554;8.504;2022-12-16T05:00:38;0.70;99.90
73939;DHT22;62291;47.554;8.504;2022-12-16T05:03:22;0.70;99.90
73939;DHT22;62291;47.554;8.504;2022-12-16T05:06:07;0.60;99.90
73939;DHT22;62291;47.554;8.504;2022-12-16T05:08:51;0.60;99.90
73939;DHT22;62291;47.554;8.504;2022-12-16T05:11:35;0.60;99.90
73939;DHT22;62291;47.554;8.504;2022-12-16T05:14:19;0.60;99.90
73939;DHT22;62291;47.554;8.504;2022-12-16T05:17:03;0.60;99.90
73939;DHT22;62291;47.554;8.504;2022-12-16T05:19:47;0.60;99.90
73939;DHT22;62291;47.554;8.504;2022-12-16T05:22:32;0.50;99.90
73939;DHT22;62291;47.554;8.504;2022-12-16T05:25:16;0.50;99.90
73939;DHT22;62291;47.554;8.504;2022-12-16T05:28:00;0.50;99.90
73939;DHT22;62291;47.554;8.504;2022-12-16T05:30:44;0.50;99.90
73939;DHT22;62291;47.554;8.504;2022-12-16T05:33:28;0.50;99.90
73939;DHT22;62291;47.554;8.504;2022-12-16T05:36:12;0.50;99.90
73939;DHT22;62291;47.554;8.504;2022-12-16T05:39:01;0.40;99.90
73939;DHT22;62291;47.554;8.504;2022-12-16T05:41:45;0.40;99.90
73939;DHT22;62291;47.554;8.504;2022-12-16T05:44:29;0.40;99.90
73939;DHT22;62291;47.554;8.504;2022-12-16T05:47:13;0.30;99.90
73939;DHT22;62291;47.554;8.504;2022-12-16T05:49:57;0.30;99.90
73939;DHT22;62291;47.554;8.504;2022-12-16T05:52:48;0.30;99.90
73939;DHT22;62291;47.554;8.504;2022-12-16T05:55:33;0.30;99.90
73939;DHT22;62291;47.554;8.504;2022-12-16T05:58:17;0.30;99.90
73939;DHT22;62291;47.554;8.504;2022-12-16T06:01:01;0.30;99.90
73939;DHT22;62291;47.554;8.504;2022-12-16T06:03:45;0.30;99.90
73939;DHT22;62291;47.554;8.504;2022-12-16T06:06:29;0.30;99.90
73939;DHT22;62291;47.554;8.504;2022-12-16T06:09:13;0.30;99.90
73939;DHT22;62291;47.554;8.504;2022-12-16T06:11:57;0.20;99.90
73939;DHT22;62291;47.554;8.504;2022-12-16T06:14:41;0.30;99.90
73939;DHT22;62291;47.554;8.504;2022-12-16T06:17:25;0.20;99.90
73939;DHT22;62291;47.554;8.504;2022-12-16T06:20:10;0.20;99.90
73939;DHT22;62291;47.554;8.504;2022-12-16T06:22:54;0.10;99.90
73939;DHT22;62291;47.554;8.504;2022-12-16T06:25:39;0.10;99.90
73939;DHT22;62291;47.554;8.504;2022-12-16T06:28:23;0.10;99.90
73939;DHT22;62291;47.554;8.504;2022-12-16T06:31:08;0.10;99.90
73939;DHT22;62291;47.554;8.504;2022-12-16T06:33:53;0.10;99.90
73939;DHT22;62291;47.554;8.504;2022-12-16T06:36:38;0.10;99.90
73939;DHT22;62291;47.554;8.504;2022-12-16T06:39:22;0.20;99.90
73939;DHT22;62291;47.554;8.504;2022-12-16T06:42:06;0.30;99.90
73939;DHT22;62291;47.554;8.504;2022-12-16T06:44:50;0.30;99.90
73939;DHT22;62291;47.554;8.504;2022-12-16T06:47:34;0.30;99.90
73939;DHT22;62291;47.554;8.504;2022-12-16T06:50:19;0.20;99.90
73939;DHT22;62291;47.554;8.504;2022-12-16T06:53:03;0.20;99.90
73939;DHT22;62291;47.554;8.504;2022-12-16T06:55:47;0.20;99.90
73939;DHT22;62291;47.554;8.504;2022-12-16T06:58:32;0.10;99.90
73939;DHT22;62291;47.554;8.504;2022-12-16T07:01:16;0.10;99.90
73939;DHT22;62291;47.554;8.504;2022-12-16T07:04:00;0.10;99.90
73939;DHT22;62291;47.554;8.504;2022-12-16T07:06:44;0.10;99.90
73939;DHT22;62291;47.554;8.504;2022-12-16T07:09:28;0.10;99.90
73939;DHT22;62291;47.554;8.504;2022-12-16T07:12:13;0.10;99.90
73939;DHT22;62291;47.554;8.504;2022-12-16T07:14:58;0.20;99.90
73939;DHT22;62291;47.554;8.504;2022-12-16T07:17:44;0.20;99.90
73939;DHT22;62291;47.554;8.504;2022-12-16T07:20:28;0.30;99.90
73939;DHT22;62291;47.554;8.504;2022-12-16T07:23:12;0.20;99.90
73939;DHT22;62291;47.554;8.504;2022-12-16T07:25:56;0.30;99.90
73939;DHT22;62291;47.554;8.504;2022-12-16T07:28:40;0.30;99.90
73939;DHT22;62291;47.554;8.504;2022-12-16T07:31:24;0.20;99.90
73939;DHT22;62291;47.554;8.504;2022-12-16T07:34:08;0.20;99.90
73939;DHT22;62291;47.554;8.504;2022-12-16T07:36:52;0.20;99.90
73939;DHT22;62291;47.554;8.504;2022-12-16T07:39:36;0.10;99.90
73939;DHT22;62291;47.554;8.504;2022-12-16T07:42:21;0.10;99.90
73939;DHT22;62291;47.554;8.504;2022-12-16T07:45:06;0.10;99.90
73939;DHT22;62291;47.554;8.504;2022-12-16T07:47:50;0.10;99.90
73939;DHT22;62291;47.554;8.504;2022-12-16T07:50:35;0.10;99.90
73939;DHT22;62291;47.554;8.504;2022-12-16T07:53:20;0.10;99.90
73939;DHT22;62291;47.554;8.504;2022-12-16T07:56:04;0.10;99.90
73939;DHT22;62291;47.554;8.504;2022-12-16T07:58:49;0.10;99.90
73939;DHT22;62291;47.554;8.504;2022-12-16T08:01:33;0.10;99.90
73939;DHT22;62291;47.554;8.504;2022-12-16T08:04:17;0.20;99.90
73939;DHT22;62291;47.554;8.504;2022-12-16T08:07:01;0.20;99.90
73939;DHT22;62291;47.554;8.504;2022-12-16T08:09:45;0.20;99.90
73939;DHT22;62291;47.554;8.504;2022-12-16T08:12:29;0.30;99.90
73939;DHT22;62291;47.554;8.504;2022-12-16T08:15:13;0.30;99.90
73939;DHT22;62291;47.554;8.504;2022-12-16T08:17:57;0.30;99.90
73939;DHT22;62291;47.554;8.504;2022-12-16T08:20:41;0.30;99.90
73939;DHT22;62291;47.554;8.504;2022-12-16T08:23:25;0.30;99.90
73939;DHT22;62291;47.554;8.504;2022-12-16T08:26:10;0.40;99.90
73939;DHT22;62291;47.554;8.504;2022-12-16T08:28:54;0.40;99.90
73939;DHT22;62291;47.554;8.504;2022-12-16T08:31:38;0.30;99.90
73939;DHT22;62291;47.554;8.504;2022-12-16T08:34:23;0.30;99.90
73939;DHT22;62291;47.554;8.504;2022-12-16T08:37:07;0.30;99.90
73939;DHT22;62291;47.554;8.504;2022-12-16T08:40:05;0.30;99.90
73939;DHT22;62291;47.554;8.504;2022-12-16T08:42:50;0.40;99.90
73939;DHT22;62291;47.554;8.504;2022-12-16T08:45:34;0.50;99.90
73939;DHT22;62291;47.554;8.504;2022-12-16T08:48:18;0.50;99.90
73939;DHT22;62291;47.554;8.504;2022-12-16T08:51:04;0.50;99.90
73939;DHT22;62291;47.554;8.504;2022-12-16T08:53:49;0.50;99.90
73939;DHT22;62291;47.554;8.504;2022-12-16T08:56:35;0.60;99.90
73939;DHT22;62291;47.554;8.504;2022-12-16T08:59:19;0.60;99.90
73939;DHT22;62291;47.554;8.504;2022-12-16T09:02:04;0.70;99.90
73939;DHT22;62291;47.554;8.504;2022-12-16T09:04:48;0.70;99.90
73939;DHT22;62291;47.554;8.504;2022-12-16T09:07:32;0.70;99.90
73939;DHT22;62291;47.554;8.504;2022-12-16T09:10:16;0.80;99.90
73939;DHT22;62291;47.554;8.504;2022-12-16T09:13:12;0.90;99.90
73939;DHT22;62291;47.554;8.504;2022-12-16T09:15:56;1.10;99.90
73939;DHT22;62291;47.554;8.504;2022-12-16T09:18:41;1.10;99.90
73939;DHT22;62291;47.554;8.504;2022-12-16T09:21:25;0.90;99.90
73939;DHT22;62291;47.554;8.504;2022-12-16T09:24:09;0.90;99.90
73939;DHT22;62291;47.554;8.504;2022-12-16T09:26:54;0.90;99.90
73939;DHT22;62291;47.554;8.504;2022-12-16T09:29:38;0.90;99.90
73939;DHT22;62291;47.554;8.504;2022-12-16T09:32:22;0.90;99.90
73939;DHT22;62291;47.554;8.504;2022-12-16T09:35:06;0.90;99.90
73939;DHT22;62291;47.554;8.504;2022-12-16T09:37:50;1.00;99.90
73939;DHT22;62291;47.554;8.504;2022-12-16T09:40:37;0.90;99.90
73939;DHT22;62291;47.554;8.504;2022-12-16T09:52:18;1.00;99.90
73939;DHT22;62291;47.554;8.504;2022-12-16T09:55:05;1.10;99.90
73939;DHT22;62291;47.554;8.504;2022-12-16T09:57:57;1.10;99.90
73939;DHT22;62291;47.554;8.504;2022-12-16T10:00:42;1.00;99.90
73939;DHT22;62291;47.554;8.504;2022-12-16T10:03:35;0.90;99.90
73939;DHT22;62291;47.554;8.504;2022-12-16T10:09:27;1.20;99.90
73939;DHT22;62291;47.554;8.504;2022-12-16T10:15:35;1.20;99.90
73939;DHT22;62291;47.554;8.504;2022-12-16T10:21:16;1.20;99.90
73939;DHT22;62291;47.554;8.504;2022-12-16T10:27:13;1.30;99.90
73939;DHT22;62291;47.554;8.504;2022-12-16T10:29:59;1.20;99.90
73939;DHT22;62291;47.554;8.504;2022-12-16T10:32:50;1.20;99.90
73939;DHT22;62291;47.554;8.504;2022-12-16T10:35:45;1.20;99.90
73939;DHT22;62291;47.554;8.504;2022-12-16T10:41:19;1.20;99.90
73939;DHT22;62291;47.554;8.504;2022-12-16T10:44:15;1.20;99.90
73939;DHT22;62291;47.554;8.504;2022-12-16T10:47:02;1.20;99.90
73939;DHT22;62291;47.554;8.504;2022-12-16T10:49:53;1.40;99.90
73939;DHT22;62291;47.554;8.504;2022-12-16T10:52:50;1.40;99.90
73939;DHT22;62291;47.554;8.504;2022-12-16T10:58:49;1.30;99.90
73939;DHT22;62291;47.554;8.504;2022-12-16T11:01:35;1.20;99.90
73939;DHT22;62291;47.554;8.504;2022-12-16T11:04:30;1.30;99.90
73939;DHT22;62291;47.554;8.504;2022-12-16T11:13:25;1.60;99.90
73939;DHT22;62291;47.554;8.504;2022-12-16T11:16:22;1.60;99.90
73939;DHT22;62291;47.554;8.504;2022-12-16T11:22:16;1.50;99.90
73939;DHT22;62291;47.554;8.504;2022-12-16T11:25:17;1.60;99.90
73939;DHT22;62291;47.554;8.504;2022-12-16T11:28:11;1.60;99.90
73939;DHT22;62291;47.554;8.504;2022-12-16T11:30:58;1.60;99.90
73939;DHT22;62291;47.554;8.504;2022-12-16T11:33:44;1.40;99.90
73939;DHT22;62291;47.554;8.504;2022-12-16T11:36:31;1.40;99.90
73939;DHT22;62291;47.554;8.504;2022-12-16T11:39:19;1.40;99.90
73939;DHT22;62291;47.554;8.504;2022-12-16T11:42:05;1.40;99.90
73939;DHT22;62291;47.554;8.504;2022-12-16T11:45:00;1.20;99.90
73939;DHT22;62291;47.554;8.504;2022-12-16T11:47:48;1.20;99.90
73939;DHT22;62291;47.554;8.504;2022-12-16T11:50:38;1.20;99.90
73939;DHT22;62291;47.554;8.504;2022-12-16T11:53:33;1.30;99.90
73939;DHT22;62291;47.554;8.504;2022-12-16T11:56:26;1.30;99.90
73939;DHT22;62291;47.554;8.504;2022-12-16T11:59:33;1.50;99.90
73939;DHT22;62291;47.554;8.504;2022-12-16T12:02:55;1.60;99.90
73939;DHT22;62291;47.554;8.504;2022-12-16T12:05:59;1.50;99.90
73939;DHT22;62291;47.554;8.504;2022-12-16T12:09:02;1.50;99.90
73939;DHT22;62291;47.554;8.504;2022-12-16T12:12:23;1.50;99.90
73939;DHT22;62291;47.554;8.504;2022-12-16T12:15:09;1.60;99.90
73939;DHT22;62291;47.554;8.504;2022-12-16T12:20:49;1.40;99.90
73939;DHT22;62291;47.554;8.504;2022-12-16T12:27:08;1.30;99.90
73939;DHT22;62291;47.554;8.504;2022-12-16T12:30:04;1.20;99.90
73939;DHT22;62291;47.554;8.504;2022-12-16T12:39:20;1.20;99.90
73939;DHT22;62291;47.554;8.504;2022-12-16T12:48:23;1.10;99.90
73939;DHT22;62291;47.554;8.504;2022-12-16T12:51:18;1.10;99.90
73939;DHT22;62291;47.554;8.504;2022-12-16T12:56:59;1.20;99.90
73939;DHT22;62291;47.554;8.504;2022-12-16T12:59:50;1.10;99.90
73939;DHT22;62291;47.554;8.504;2022-12-16T13:05:42;1.10;99.90
73939;DHT22;62291;47.554;8.504;2022-12-16T13:11:15;1.00;99.90
73939;DHT22;62291;47.554;8.504;2022-12-16T13:14:00;1.00;99.90
73939;DHT22;62291;47.554;8.504;2022-12-16T13:25:54;1.00;99.90
73939;DHT22;62291;47.554;8.504;2022-12-16T13:29:23;1.20;99.90
73939;DHT22;62291;47.554;8.504;2022-12-16T13:38:16;1.00;99.90
73939;DHT22;62291;47.554;8.504;2022-12-16T13:41:45;1.00;99.90
73939;DHT22;62291;47.554;8.504;2022-12-16T13:44:11;0.90;99.90
73939;DHT22;62291;47.554;8.504;2022-12-16T13:46:56;0.90;99.90
73939;DHT22;62291;47.554;8.504;2022-12-16T13:49:43;0.90;99.90
73939;DHT22;62291;47.554;8.504;2022-12-16T13:52:47;0.90;99.90
73939;DHT22;62291;47.554;8.504;2022-12-16T13:58:45;0.90;99.90
73939;DHT22;62291;47.554;8.504;2022-12-16T14:01:48;0.90;99.90
73939;DHT22;62291;47.554;8.504;2022-12-16T14:04:58;0.90;99.90
73939;DHT22;62291;47.554;8.504;2022-12-16T14:07:41;0.90;99.90
73939;DHT22;62291;47.554;8.504;2022-12-16T14:10:40;0.90;99.90
73939;DHT22;62291;47.554;8.504;2022-12-16T14:16:50;0.90;99.90
73939;DHT22;62291;47.554;8.504;2022-12-16T14:20:57;1.00;99.90
73939;DHT22;62291;47.554;8.504;2022-12-16T14:26:37;0.90;99.90
73939;DHT22;62291;47.554;8.504;2022-12-16T14:29:25;0.90;99.90
73939;DHT22;62291;47.554;8.504;2022-12-16T14:35:24;0.70;99.90
73939;DHT22;62291;47.554;8.504;2022-12-16T14:38:25;0.60;99.90
73939;DHT22;62291;47.554;8.504;2022-12-16T14:41:14;0.60;99.90
73939;DHT22;62291;47.554;8.504;2022-12-16T14:44:00;0.60;99.90
73939;DHT22;62291;47.554;8.504;2022-12-16T14:46:50;0.60;99.90
73939;DHT22;62291;47.554;8.504;2022-12-16T14:49:34;0.70;99.90
73939;DHT22;62291;47.554;8.504;2022-12-16T14:52:23;0.80;99.90
73939;DHT22;62291;47.554;8.504;2022-12-16T14:55:30;0.80;99.90
73939;DHT22;62291;47.554;8.504;2022-12-16T14:58:20;0.90;99.90
73939;DHT22;62291;47.554;8.504;2022-12-16T15:01:19;0.80;99.90
73939;DHT22;62291;47.554;8.504;2022-12-16T15:04:16;0.80;99.90
73939;DHT22;62291;47.554;8.504;2022-12-16T15:07:19;0.60;99.90
73939;DHT22;62291;47.554;8.504;2022-12-16T15:10:04;0.70;99.90
73939;DHT22;62291;47.554;8.504;2022-12-16T15:12:48;0.70;99.90
73939;DHT22;62291;47.554;8.504;2022-12-16T15:15:44;0.70;99.90
73939;DHT22;62291;47.554;8.504;2022-12-16T15:18:39;0.70;99.90
73939;DHT22;62291;47.554;8.504;2022-12-16T15:21:25;0.60;99.90
73939;DHT22;62291;47.554;8.504;2022-12-16T15:24:15;0.40;99.90
73939;DHT22;62291;47.554;8.504;2022-12-16T15:30:29;0.60;99.90
73939;DHT22;62291;47.554;8.504;2022-12-16T15:33:17;0.60;99.90
73939;DHT22;62291;47.554;8.504;2022-12-16T15:36:03;0.40;99.90
73939;DHT22;62291;47.554;8.504;2022-12-16T15:38:48;0.40;99.90
73939;DHT22;62291;47.554;8.504;2022-12-16T15:41:34;0.30;99.90
73939;DHT22;62291;47.554;8.504;2022-12-16T15:44:27;0.30;99.90
73939;DHT22;62291;47.554;8.504;2022-12-16T15:47:31;0.30;99.90
73939;DHT22;62291;47.554;8.504;2022-12-16T15:50:20;0.40;99.90
73939;DHT22;62291;47.554;8.504;2022-12-16T15:53:30;0.40;99.90
73939;DHT22;62291;47.554;8.504;2022-12-16T15:56:24;0.50;99.90
73939;DHT22;62291;47.554;8.504;2022-12-16T16:02:24;0.40;99.90
73939;DHT22;62291;47.554;8.504;2022-12-16T16:05:21;0.30;99.90
73939;DHT22;62291;47.554;8.504;2022-12-16T16:08:06;0.30;99.90
73939;DHT22;62291;47.554;8.504;2022-12-16T16:10:51;0.40;99.90
73939;DHT22;62291;47.554;8.504;2022-12-16T16:13:36;0.40;99.90
73939;DHT22;62291;47.554;8.504;2022-12-16T16:16:20;0.40;99.90
73939;DHT22;62291;47.554;8.504;2022-12-16T16:19:15;0.40;99.90
73939;DHT22;62291;47.554;8.504;2022-12-16T16:22:03;0.40;99.90
73939;DHT22;62291;47.554;8.504;2022-12-16T16:24:47;0.40;99.90
73939;DHT22;62291;47.554;8.504;2022-12-16T16:27:31;0.50;99.90
73939;DHT22;62291;47.554;8.504;2022-12-16T16:30:26;0.40;99.90
73939;DHT22;62291;47.554;8.504;2022-12-16T16:33:10;0.30;99.90
73939;DHT22;62291;47.554;8.504;2022-12-16T16:35:54;0.30;99.90
73939;DHT22;62291;47.554;8.504;2022-12-16T16:38:39;0.30;99.90
73939;DHT22;62291;47.554;8.504;2022-12-16T16:41:22;0.20;99.90
73939;DHT22;62291;47.554;8.504;2022-12-16T16:44:07;0.20;99.90
73939;DHT22;62291;47.554;8.504;2022-12-16T16:46:51;0.30;99.90
73939;DHT22;62291;47.554;8.504;2022-12-16T16:49:46;0.20;99.90
73939;DHT22;62291;47.554;8.504;2022-12-16T16:52:30;0.10;99.90
73939;DHT22;62291;47.554;8.504;2022-12-16T16:55:21;0.10;99.90
73939;DHT22;62291;47.554;8.504;2022-12-16T16:58:14;0.20;99.90
73939;DHT22;62291;47.554;8.504;2022-12-16T17:00:59;0.20;99.90
73939;DHT22;62291;47.554;8.504;2022-12-16T17:03:43;0.20;99.90
73939;DHT22;62291;47.554;8.504;2022-12-16T17:06:27;0.20;99.90
73939;DHT22;62291;47.554;8.504;2022-12-16T17:09:11;0.20;99.90
73939;DHT22;62291;47.554;8.504;2022-12-16T17:11:55;0.20;99.90
73939;DHT22;62291;47.554;8.504;2022-12-16T17:14:40;0.10;99.90
73939;DHT22;62291;47.554;8.504;2022-12-16T17:17:24;0.10;99.90
73939;DHT22;62291;47.554;8.504;2022-12-16T17:20:14;0.10;99.90
73939;DHT22;62291;47.554;8.504;2022-12-16T17:22:59;0.10;99.90
73939;DHT22;62291;47.554;8.504;2022-12-16T17:25:43;0.10;99.90
73939;DHT22;62291;47.554;8.504;2022-12-16T17:28:27;0.20;99.90
73939;DHT22;62291;47.554;8.504;2022-12-16T17:31:13;0.20;99.90
73939;DHT22;62291;47.554;8.504;2022-12-16T17:33:57;0.20;99.90
73939;DHT22;62291;47.554;8.504;2022-12-16T17:36:41;0.20;99.90
73939;DHT22;62291;47.554;8.504;2022-12-16T17:39:25;0.20;99.90
73939;DHT22;62291;47.554;8.504;2022-12-16T17:42:09;0.30;99.90
73939;DHT22;62291;47.554;8.504;2022-12-16T17:44:53;0.30;99.90
73939;DHT22;62291;47.554;8.504;2022-12-16T17:47:37;0.40;99.90
73939;DHT22;62291;47.554;8.504;2022-12-16T17:50:21;0.40;99.90
73939;DHT22;62291;47.554;8.504;2022-12-16T17:53:08;0.50;99.90
73939;DHT22;62291;47.554;8.504;2022-12-16T17:55:52;0.50;99.90
73939;DHT22;62291;47.554;8.504;2022-12-16T17:58:37;0.50;99.90
73939;DHT22;62291;47.554;8.504;2022-12-16T18:01:22;0.50;99.90
73939;DHT22;62291;47.554;8.504;2022-12-16T18:04:07;0.60;99.90
73939;DHT22;62291;47.554;8.504;2022-12-16T18:06:51;0.50;99.90
73939;DHT22;62291;47.554;8.504;2022-12-16T18:09:36;0.50;99.90
73939;DHT22;62291;47.554;8.504;2022-12-16T18:12:20;0.40;99.90
73939;DHT22;62291;47.554;8.504;2022-12-16T18:15:06;0.30;99.90
73939;DHT22;62291;47.554;8.504;2022-12-16T18:17:50;0.30;99.90
73939;DHT22;62291;47.554;8.504;2022-12-16T18:20:34;0.30;99.90
73939;DHT22;62291;47.554;8.504;2022-12-16T18:23:19;0.40;99.90
73939;DHT22;62291;47.554;8.504;2022-12-16T18:26:05;0.40;99.90
73939;DHT22;62291;47.554;8.504;2022-12-16T18:28:50;0.40;99.90
73939;DHT22;62291;47.554;8.504;2022-12-16T18:31:35;0.40;99.90
73939;DHT22;62291;47.554;8.504;2022-12-16T18:34:19;0.50;99.90
73939;DHT22;62291;47.554;8.504;2022-12-16T18:37:04;0.40;99.90
73939;DHT22;62291;47.554;8.504;2022-12-16T18:39:48;0.40;99.90
73939;DHT22;62291;47.554;8.504;2022-12-16T18:42:32;0.40;99.90
73939;DHT22;62291;47.554;8.504;2022-12-16T18:45:16;0.40;99.90
73939;DHT22;62291;47.554;8.504;2022-12-16T18:48:01;0.30;99.90
73939;DHT22;62291;47.554;8.504;2022-12-16T18:50:52;0.20;99.90
73939;DHT22;62291;47.554;8.504;2022-12-16T18:53:37;0.20;99.90
73939;DHT22;62291;47.554;8.504;2022-12-16T18:56:21;0.20;99.90
73939;DHT22;62291;47.554;8.504;2022-12-16T18:59:05;0.20;99.90
73939;DHT22;62291;47.554;8.504;2022-12-16T19:02:09;0.20;99.90
73939;DHT22;62291;47.554;8.504;2022-12-16T19:04:53;0.20;99.90
73939;DHT22;62291;47.554;8.504;2022-12-16T19:07:38;0.30;99.90
73939;DHT22;62291;47.554;8.504;2022-12-16T19:10:22;0.40;99.90
73939;DHT22;62291;47.554;8.504;2022-12-16T19:13:10;0.40;99.90
73939;DHT22;62291;47.554;8.504;2022-12-16T19:15:55;0.30;99.90
73939;DHT22;62291;47.554;8.504;2022-12-16T19:18:40;0.20;99.90
73939;DHT22;62291;47.554;8.504;2022-12-16T19:21:24;0.10;99.90
73939;DHT22;62291;47.554;8.504;2022-12-16T19:24:08;0.20;99.90
73939;DHT22;62291;47.554;8.504;2022-12-16T19:26:53;0.20;99.90
73939;DHT22;62291;47.554;8.504;2022-12-16T19:29:37;0.20;99.90
73939;DHT22;62291;47.554;8.504;2022-12-16T19:32:21;0.10;99.90